Terminal Aerodrome Forecast
Issued by NWS Northern Indiana

Home | Current Version | Previous Version | Text Only | Print | Product List | Glossary On
Versions: 1 2 3 4 5 6 7 8 9 10 11 12 13 14 15 16
620
FTUS43 KIWX 171125
TAFFWA
TAF
KFWA 171125Z 1712/1812 16006KT P6SM BKN120
     FM171400 20010KT P6SM VCSH OVC035
     FM171800 21013G20KT P6SM VCTS BKN040CB
     FM180000 24007KT P6SM SCT110=

USA.gov is the U.S. government's official web portal to all federal, state and local government web resources and services.